Time;durP1;ratioP1;P1;durP2;ratioP2;P2;SDS_P1;SDS_P2;PMS_P1;PMS_P2;Temp;Humidity;BMP_temperature;BMP_pressure;BME280_temperature;BME280_humidity;BME280_pressure;Samples;Min_cycle;Max_cycle;Signal;HPM_P1;HPM_P2
2024/03/12 05:02:00;;;;;;;1.67;1.57;;;2.10;97.30;;;;;;5360266;23;20502;-86
2024/03/12 05:04:26;;;;;;;4.53;2.80;;;2.10;97.30;;;;;;4975606;28;20523;-84
2024/03/12 05:06:51;;;;;;;2.33;2.13;;;2.00;97.30;;;;;;4972295;28;20656;-88
2024/03/12 05:09:18;;;;;;;3.40;3.20;;;2.00;97.30;;;;;;4971890;28;20244;-85
2024/03/12 05:11:47;;;;;;;2.20;2.03;;;2.00;97.30;;;;;;4972768;23;20234;-65
2024/03/12 05:14:13;;;;;;;4.20;2.50;;;1.90;97.30;;;;;;4967300;28;20974;-66
2024/03/12 05:16:39;;;;;;;2.03;1.90;;;1.90;97.30;;;;;;4953358;28;20442;-66
2024/03/12 05:19:04;;;;;;;1.20;1.10;;;1.90;97.30;;;;;;4961726;28;20197;-65
2024/03/12 05:21:31;;;;;;;2.83;2.60;;;2.00;97.30;;;;;;4986975;28;20233;-66
2024/03/12 05:23:56;;;;;;;1.73;1.63;;;1.90;97.30;;;;;;4982377;28;20645;-65
2024/03/12 05:26:29;;;;;;;1.73;1.63;;;2.00;97.30;;;;;;4957985;28;20716;-66
2024/03/12 05:28:57;;;;;;;3.03;2.87;;;2.00;97.30;;;;;;4964842;28;20190;-65
2024/03/12 05:31:29;;;;;;;3.07;2.60;;;2.00;97.30;;;;;;4990274;28;20452;-65
2024/03/12 05:33:59;;;;;;;2.60;2.00;;;2.00;97.30;;;;;;4978007;28;20939;-66
2024/03/12 05:36:29;;;;;;;2.60;2.40;;;2.00;97.30;;;;;;4951465;28;20468;-66
2024/03/12 05:39:03;;;;;;;2.80;2.60;;;1.90;97.30;;;;;;4965350;28;20954;-65
2024/03/12 05:41:40;;;;;;;11.33;4.17;;;1.90;97.30;;;;;;4976563;28;20450;-65
2024/03/12 05:49:34;;;;;;;3.30;3.10;;;1.90;97.30;;;;;;4973798;28;20500;-66
2024/03/12 05:52:00;;;;;;;1.70;1.60;;;1.90;97.30;;;;;;4985612;28;20916;-66
2024/03/12 05:54:25;;;;;;;1.67;1.57;;;1.80;97.30;;;;;;4969711;28;20186;-65
2024/03/12 05:56:52;;;;;;;1.43;1.33;;;1.90;97.30;;;;;;4973199;28;20193;-66
2024/03/12 05:59:21;;;;;;;9.90;3.90;;;1.90;97.30;;;;;;4954199;28;20186;-66
2024/03/12 06:01:47;;;;;;;2.60;2.40;;;2.00;97.30;;;;;;4955666;28;20477;-65
2024/03/12 06:04:14;;;;;;;5.93;2.10;;;2.00;97.30;;;;;;4953833;28;20433;-66
2024/03/12 06:06:40;;;;;;;14.47;3.00;;;2.00;97.30;;;;;;4954945;28;20932;-66
2024/03/12 06:09:09;;;;;;;2.83;2.63;;;2.00;97.30;;;;;;4937642;28;20972;-66
2024/03/12 06:11:35;;;;;;;6.43;3.60;;;2.00;97.30;;;;;;4954561;28;20234;-66
2024/03/12 06:14:00;;;;;;;4.77;2.70;;;2.00;97.30;;;;;;4950999;28;20440;-66
2024/03/12 06:16:26;;;;;;;2.20;2.00;;;2.00;97.30;;;;;;4973833;28;20175;-66
2024/03/12 06:18:51;;;;;;;1.90;1.80;;;2.00;97.30;;;;;;4966613;28;20190;-65
2024/03/12 06:21:17;;;;;;;1.93;1.73;;;2.00;97.30;;;;;;4968521;28;20237;-66
2024/03/12 06:23:44;;;;;;;2.53;2.33;;;2.00;97.30;;;;;;4945629;28;20571;-65
2024/03/12 06:26:09;;;;;;;9.40;2.57;;;2.00;97.30;;;;;;4969199;28;20588;-66
2024/03/12 06:28:35;;;;;;;3.33;3.13;;;2.10;97.30;;;;;;4964997;28;20514;-66
2024/03/12 06:31:03;;;;;;;2.90;2.70;;;2.10;97.30;;;;;;4952085;28;20194;-66
2024/03/12 06:33:29;;;;;;;2.90;2.70;;;2.20;97.30;;;;;;4960196;28;20532;-66
2024/03/12 06:35:55;;;;;;;1.97;1.87;;;2.20;97.30;;;;;;4954453;28;21033;-66
2024/03/12 06:38:20;;;;;;;2.30;2.10;;;2.30;97.30;;;;;;4959852;28;20183;-66
2024/03/12 06:40:48;;;;;;;3.17;2.40;;;2.40;97.30;;;;;;4946174;28;20699;-66
2024/03/12 06:43:17;;;;;;;2.07;1.93;;;2.50;97.30;;;;;;4957044;28;20193;-66
2024/03/12 06:45:43;;;;;;;1.87;1.77;;;2.60;97.30;;;;;;4964611;28;20830;-66
2024/03/12 06:48:08;;;;;;;4.87;2.90;;;2.70;97.30;;;;;;4959704;28;20433;-66
2024/03/12 06:50:34;;;;;;;1.80;1.70;;;2.80;97.30;;;;;;4969034;28;20731;-66
2024/03/12 06:53:00;;;;;;;1.73;1.63;;;2.90;97.30;;;;;;4974721;28;20544;-66
2024/03/12 06:55:26;;;;;;;5.57;3.33;;;3.10;97.30;;;;;;4958477;28;20484;-65
2024/03/12 06:57:59;;;;;;;5.60;2.30;;;3.20;97.30;;;;;;4962232;28;20670;-66
2024/03/12 07:00:37;;;;;;;2.40;1.80;;;3.40;97.30;;;;;;4956028;28;20435;-67
2024/03/12 07:03:07;;;;;;;5.27;2.10;;;3.50;97.30;;;;;;4962863;28;20682;-66
2024/03/12 07:05:36;;;;;;;3.33;2.50;;;3.70;97.30;;;;;;4948104;28;20431;-66
2024/03/12 07:08:05;;;;;;;2.40;1.60;;;4.00;97.30;;;;;;4965144;28;20532;-66
2024/03/12 07:10:31;;;;;;;5.23;2.67;;;4.20;97.30;;;;;;4951266;28;20441;-67
2024/03/12 07:12:59;;;;;;;5.17;2.90;;;4.40;97.30;;;;;;4953275;28;21204;-67
2024/03/12 07:15:27;;;;;;;5.57;2.10;;;4.70;97.30;;;;;;4942289;28;20418;-66
2024/03/12 07:17:53;;;;;;;2.23;2.03;;;4.90;97.30;;;;;;4946594;28;20445;-66
2024/03/12 07:20:21;;;;;;;1.90;1.80;;;5.20;97.30;;;;;;4972807;28;21023;-66
2024/03/12 07:22:47;;;;;;;1.50;1.40;;;5.50;97.30;;;;;;4971478;28;20187;-66
2024/03/12 07:25:13;;;;;;;12.13;2.70;;;5.70;97.30;;;;;;4954333;28;20622;-66
2024/03/12 07:27:39;;;;;;;1.90;1.80;;;5.90;97.30;;;;;;4947742;28;20974;-65
2024/03/12 07:30:12;;;;;;;1.83;1.73;;;6.10;97.30;;;;;;4969291;28;20190;-66
2024/03/12 07:32:38;;;;;;;3.20;1.77;;;6.30;97.30;;;;;;4970516;28;20555;-66
2024/03/12 07:35:05;;;;;;;3.53;3.23;;;6.50;97.30;;;;;;4971676;28;20509;-66
2024/03/12 07:37:36;;;;;;;2.43;2.23;;;6.70;97.30;;;;;;4955691;28;20986;-66
2024/03/12 07:40:03;;;;;;;3.60;2.90;;;6.90;97.30;;;;;;4948753;28;20465;-66
2024/03/12 07:42:28;;;;;;;3.87;3.67;;;7.10;97.30;;;;;;4950345;28;20432;-66
2024/03/12 07:44:54;;;;;;;1.87;1.77;;;7.20;97.30;;;;;;4969727;28;20427;-65
2024/03/12 07:47:20;;;;;;;2.07;1.77;;;7.40;97.30;;;;;;4969420;28;20269;-66
2024/03/12 07:49:46;;;;;;;1.30;1.20;;;7.50;97.30;;;;;;4973029;28;20612;-65
2024/03/12 07:52:11;;;;;;;2.50;2.07;;;7.80;97.30;;;;;;4969126;28;20575;-65
2024/03/12 07:54:37;;;;;;;2.63;2.43;;;7.90;97.30;;;;;;4942838;28;20210;-65
2024/03/12 07:57:04;;;;;;;1.43;1.33;;;8.00;97.30;;;;;;4943093;28;20210;-65
2024/03/12 07:59:31;;;;;;;1.47;1.37;;;8.20;97.30;;;;;;4947542;28;20509;-66
2024/03/12 08:02:03;;;;;;;13.53;2.27;;;8.40;97.30;;;;;;4953663;28;20534;-65
2024/03/12 08:04:29;;;;;;;2.20;1.90;;;8.50;97.30;;;;;;4944839;28;20518;-66
2024/03/12 08:06:54;;;;;;;1.90;1.80;;;8.70;97.30;;;;;;4962962;28;20980;-65
2024/03/12 08:09:21;;;;;;;10.87;4.00;;;8.80;97.30;;;;;;4973980;28;20191;-66
2024/03/12 08:11:47;;;;;;;1.33;1.20;;;9.00;97.30;;;;;;4945157;28;20381;-65
2024/03/12 08:14:14;;;;;;;1.77;1.67;;;9.10;97.30;;;;;;4970214;28;20987;-65
2024/03/12 08:16:40;;;;;;;7.90;2.93;;;9.30;97.30;;;;;;4945979;28;20434;-66
2024/03/12 08:19:06;;;;;;;3.57;2.30;;;9.40;97.30;;;;;;4957757;28;20425;-65
2024/03/12 08:21:33;;;;;;;2.40;2.20;;;9.60;97.30;;;;;;4944018;28;20822;-66
2024/03/12 08:23:58;;;;;;;1.83;1.50;;;9.70;97.30;;;;;;4954759;28;20612;-66
2024/03/12 08:26:26;;;;;;;2.40;1.50;;;9.90;97.30;;;;;;4960116;28;20513;-66
2024/03/12 08:28:53;;;;;;;2.00;1.90;;;10.00;97.30;;;;;;4965892;28;20489;-66
2024/03/12 08:31:19;;;;;;;4.40;2.40;;;10.20;97.30;;;;;;4952509;28;20441;-65
2024/03/12 08:33:45;;;;;;;3.23;1.67;;;10.30;97.30;;;;;;4956412;28;21013;-65
2024/03/12 08:36:10;;;;;;;1.87;1.77;;;10.40;97.30;;;;;;4952743;28;20433;-65
2024/03/12 08:38:36;;;;;;;4.00;2.10;;;10.40;97.30;;;;;;4968748;28;20174;-66
2024/03/12 08:41:02;;;;;;;1.70;1.60;;;10.50;97.30;;;;;;4969453;28;20617;-65
2024/03/12 08:43:28;;;;;;;1.43;1.33;;;10.60;97.30;;;;;;4962906;28;20183;-65
2024/03/12 08:45:54;;;;;;;1.83;1.63;;;10.70;97.30;;;;;;4961125;28;20437;-65
2024/03/12 08:48:19;;;;;;;1.43;1.33;;;10.80;97.30;;;;;;4963785;28;20269;-65
2024/03/12 08:50:45;;;;;;;2.90;2.50;;;10.90;97.00;;;;;;4962898;28;20439;-65
2024/03/12 08:53:11;;;;;;;1.50;1.43;;;11.10;97.30;;;;;;4940452;28;20197;-65
2024/03/12 08:55:37;;;;;;;1.33;1.23;;;11.20;96.30;;;;;;4956487;28;20179;-65
2024/03/12 08:58:04;;;;;;;1.67;1.57;;;11.20;96.20;;;;;;4942580;28;20427;-65
2024/03/12 09:00:30;;;;;;;1.87;1.77;;;11.20;96.10;;;;;;4945675;28;20506;-65
2024/03/12 09:02:55;;;;;;;4.27;1.73;;;11.20;96.20;;;;;;4942806;28;20422;-65
2024/03/12 09:05:21;;;;;;;2.37;1.93;;;11.30;95.80;;;;;;4947224;28;20656;-66
2024/03/12 09:07:48;;;;;;;1.67;1.30;;;11.50;96.10;;;;;;4941550;28;20183;-65
2024/03/12 09:10:15;;;;;;;1.60;1.50;;;11.70;95.90;;;;;;4964913;28;20425;-65
2024/03/12 09:12:41;;;;;;;1.10;1.00;;;11.70;94.50;;;;;;4947821;28;20490;-66
2024/03/12 09:15:08;;;;;;;1.97;1.87;;;11.70;94.60;;;;;;4941532;28;20768;-65
2024/03/12 09:17:39;;;;;;;1.40;1.30;;;11.80;94.30;;;;;;4944095;28;20416;-65
2024/03/12 09:20:11;;;;;;;1.33;1.20;;;11.90;94.10;;;;;;4952842;28;20800;-66
2024/03/12 09:22:37;;;;;;;2.07;1.90;;;12.10;93.30;;;;;;4942346;28;20434;-66
2024/03/12 09:25:04;;;;;;;1.73;1.63;;;11.90;92.90;;;;;;4947972;28;20427;-66
2024/03/12 09:27:30;;;;;;;1.83;1.20;;;12.00;93.40;;;;;;4946278;28;20427;-66
2024/03/12 09:29:56;;;;;;;10.10;1.40;;;12.10;92.60;;;;;;4947761;28;20969;-66
2024/03/12 09:32:24;;;;;;;2.70;1.73;;;12.10;92.50;;;;;;4940582;28;20818;-66
2024/03/12 09:34:52;;;;;;;5.17;2.10;;;12.10;92.70;;;;;;4952864;28;20182;-66
2024/03/12 09:37:19;;;;;;;4.63;1.83;;;12.20;92.60;;;;;;4940661;28;20507;-65
2024/03/12 09:39:44;;;;;;;1.30;1.20;;;12.20;92.50;;;;;;4944986;28;20948;-67
2024/03/12 09:42:14;;;;;;;1.00;0.90;;;12.30;92.60;;;;;;4938093;28;20560;-65
2024/03/12 09:44:41;;;;;;;2.03;1.90;;;12.40;93.70;;;;;;4949016;28;20180;-66
2024/03/12 09:47:08;;;;;;;15.10;1.70;;;12.50;93.10;;;;;;4950416;28;20792;-65
2024/03/12 09:49:35;;;;;;;1.53;1.30;;;12.60;92.30;;;;;;4940639;28;20939;-66
2024/03/12 09:52:03;;;;;;;1.63;1.57;;;12.50;91.40;;;;;;4938582;28;20995;-66
2024/03/12 09:54:29;;;;;;;6.03;2.83;;;12.30;92.60;;;;;;4946623;28;20595;-65
2024/03/12 09:56:55;;;;;;;1.97;1.87;;;12.60;93.60;;;;;;4946316;28;20445;-65
2024/03/12 09:59:21;;;;;;;3.03;1.87;;;12.90;93.60;;;;;;4943262;28;20184;-65
2024/03/12 10:01:48;;;;;;;2.20;2.00;;;13.00;92.30;;;;;;4939229;28;20456;-65
2024/03/12 10:04:17;;;;;;;3.60;1.87;;;12.90;92.00;;;;;;4943934;28;20489;-66
2024/03/12 10:06:45;;;;;;;1.83;1.73;;;12.90;92.80;;;;;;4944308;28;20423;-66
2024/03/12 10:09:18;;;;;;;8.27;2.67;;;12.80;91.90;;;;;;4936883;28;20449;-65
2024/03/12 10:11:44;;;;;;;2.50;2.30;;;12.50;91.60;;;;;;4954873;28;20484;-66
2024/03/12 10:14:12;;;;;;;2.67;1.77;;;12.30;92.60;;;;;;4944560;28;21014;-66
2024/03/12 10:16:38;;;;;;;1.80;1.73;;;12.20;92.30;;;;;;4937735;28;20447;-66
2024/03/12 10:19:09;;;;;;;2.70;2.50;;;11.90;93.30;;;;;;4962848;28;20961;-66
2024/03/12 10:21:36;;;;;;;2.60;2.40;;;11.80;94.00;;;;;;4940981;28;20449;-66
2024/03/12 10:24:17;;;;;;;2.37;2.20;;;11.80;94.40;;;;;;4965886;28;20430;-65
2024/03/12 10:26:44;;;;;;;3.33;1.17;;;12.10;93.80;;;;;;4959117;28;20418;-66
2024/03/12 10:29:12;;;;;;;1.50;1.40;;;12.30;92.20;;;;;;4955484;28;20975;-66
2024/03/12 10:31:43;;;;;;;3.53;2.13;;;12.40;92.50;;;;;;4937072;28;20467;-65
2024/03/12 10:34:17;;;;;;;2.77;1.97;;;12.70;91.90;;;;;;4938970;28;20437;-66
2024/03/12 10:36:44;;;;;;;2.57;2.23;;;12.80;91.80;;;;;;4940745;28;20422;-66
2024/03/12 10:39:37;;;;;;;2.23;1.90;;;13.00;92.40;;;;;;4964419;28;20410;-66
2024/03/12 10:42:03;;;;;;;2.37;2.17;;;13.20;91.80;;;;;;4938839;28;20450;-66
2024/03/12 10:44:30;;;;;;;1.23;1.17;;;13.60;91.00;;;;;;4964564;28;20844;-65
2024/03/12 10:46:58;;;;;;;1.93;1.80;;;13.60;90.80;;;;;;4940085;28;20423;-66
2024/03/12 10:49:25;;;;;;;2.17;2.00;;;13.40;89.90;;;;;;4964147;28;20418;-65
2024/03/12 10:51:53;;;;;;;2.50;1.50;;;13.30;90.70;;;;;;4945006;28;20655;-66
2024/03/12 10:54:21;;;;;;;1.97;1.87;;;13.00;91.00;;;;;;4960822;28;20424;-66
2024/03/12 10:56:47;;;;;;;1.53;1.50;;;12.80;91.20;;;;;;4942368;28;20856;-66
2024/03/12 10:59:16;;;;;;;2.23;1.63;;;12.60;92.30;;;;;;4943020;28;20514;-65
2024/03/12 11:01:42;;;;;;;6.83;3.03;;;12.50;92.10;;;;;;4934332;28;20950;-66
2024/03/12 11:04:09;;;;;;;2.60;1.60;;;12.30;93.10;;;;;;4952896;28;20484;-65
2024/03/12 11:06:39;;;;;;;3.93;3.23;;;12.30;93.40;;;;;;4935383;28;20419;-65
2024/03/12 11:09:05;;;;;;;2.80;1.87;;;12.60;93.10;;;;;;4935023;28;20994;-65
2024/03/12 11:11:33;;;;;;;3.40;2.17;;;12.80;92.70;;;;;;4941816;28;20463;-65
2024/03/12 11:14:02;;;;;;;1.87;1.77;;;12.80;92.20;;;;;;4934941;28;20998;-65
2024/03/12 11:16:36;;;;;;;8.60;2.87;;;12.80;92.30;;;;;;4959813;28;20419;-66
2024/03/12 11:19:22;;;;;;;3.17;1.87;;;12.60;91.20;;;;;;4953459;28;20910;-66
2024/03/12 11:21:49;;;;;;;2.57;1.87;;;12.50;91.80;;;;;;4945600;28;20820;-65
2024/03/12 11:24:25;;;;;;;6.83;2.40;;;12.90;91.80;;;;;;4954409;28;20977;-66
2024/03/12 11:26:51;;;;;;;2.73;1.90;;;13.50;91.60;;;;;;4938372;28;20514;-65
2024/03/12 11:29:17;;;;;;;1.70;1.60;;;13.90;89.90;;;;;;4933894;28;20528;-65
2024/03/12 11:31:43;;;;;;;2.47;2.10;;;14.20;89.40;;;;;;4949297;28;20195;-65
2024/03/12 11:34:10;;;;;;;6.90;3.33;;;14.50;88.80;;;;;;4950647;28;20433;-65
2024/03/12 11:36:45;;;;;;;2.00;1.90;;;14.50;87.70;;;;;;4958152;28;20411;-65
2024/03/12 11:39:14;;;;;;;2.67;1.70;;;14.40;88.00;;;;;;4963022;28;20498;-66
2024/03/12 11:42:00;;;;;;;2.43;2.30;;;14.60;87.90;;;;;;4953986;28;21001;-65
2024/03/12 11:44:50;;;;;;;3.20;3.00;;;14.50;87.70;;;;;;4937718;28;20463;-65
2024/03/12 11:47:42;;;;;;;1.13;1.10;;;14.60;88.40;;;;;;4955248;28;20473;-66
2024/03/12 11:50:34;;;;;;;1.33;1.23;;;14.00;87.60;;;;;;4986256;23;20406;-85
2024/03/12 11:53:15;;;;;;;4.17;2.03;;;13.90;88.50;;;;;;4967150;28;20528;-83
2024/03/12 11:56:05;;;;;;;4.33;1.93;;;14.20;88.40;;;;;;4977936;28;20422;-85
2024/03/12 11:58:44;;;;;;;1.80;1.80;;;13.90;88.30;;;;;;4958290;28;20452;-82
2024/03/12 12:01:14;;;;;;;1.50;1.40;;;14.00;88.40;;;;;;4950930;28;20454;-83
2024/03/12 12:03:40;;;;;;;2.90;1.83;;;14.00;89.80;;;;;;4961003;28;20418;-83
2024/03/12 12:06:09;;;;;;;2.20;2.00;;;13.80;89.30;;;;;;4942918;28;20489;-82
2024/03/12 12:08:35;;;;;;;6.40;2.80;;;14.20;89.40;;;;;;4955839;28;20529;-83
2024/03/12 12:11:03;;;;;;;3.90;2.07;;;14.70;88.10;;;;;;4938220;28;20478;-83
2024/03/12 12:13:29;;;;;;;5.00;3.30;;;14.80;87.20;;;;;;4945422;29;20469;-82
2024/03/12 12:16:04;;;;;;;2.97;1.80;;;14.40;88.00;;;;;;4938125;29;20417;-82
2024/03/12 12:18:40;;;;;;;3.77;2.00;;;14.00;88.50;;;;;;4947832;28;20407;-84
2024/03/12 12:21:17;;;;;;;2.27;2.07;;;13.70;89.30;;;;;;4931702;28;20481;-83
2024/03/12 12:23:46;;;;;;;4.77;3.60;;;13.60;89.90;;;;;;4943830;28;20438;-83
2024/03/12 12:26:20;;;;;;;3.30;3.10;;;13.60;90.10;;;;;;4939773;28;20431;-82
2024/03/12 12:28:46;;;;;;;7.77;2.47;;;13.50;90.30;;;;;;4955267;28;20417;-82
2024/03/12 12:31:16;;;;;;;10.57;2.50;;;13.30;90.40;;;;;;4955052;28;21112;-82
2024/03/12 12:33:45;;;;;;;1.73;1.67;;;13.20;90.80;;;;;;4938268;29;20507;-82
2024/03/12 12:36:13;;;;;;;4.00;2.20;;;13.40;91.30;;;;;;4937790;28;20418;-84
2024/03/12 12:38:42;;;;;;;2.43;2.13;;;13.50;90.90;;;;;;4936865;29;20431;-83
2024/03/12 12:41:08;;;;;;;3.60;3.20;;;13.40;91.80;;;;;;4945740;28;21011;-83
2024/03/12 12:43:34;;;;;;;2.50;2.20;;;13.30;91.50;;;;;;4937940;29;20454;-82
2024/03/12 12:46:05;;;;;;;2.57;1.77;;;13.20;91.00;;;;;;4938063;29;20516;-82
2024/03/12 12:48:31;;;;;;;1.87;1.57;;;13.20;90.30;;;;;;4936384;29;20557;-82
2024/03/12 12:50:57;;;;;;;2.40;2.13;;;13.30;89.70;;;;;;4937874;29;20939;-83
2024/03/12 12:53:23;;;;;;;4.83;2.40;;;13.30;89.30;;;;;;4937343;28;21020;-82
2024/03/12 12:55:59;;;;;;;3.13;2.80;;;13.30;89.60;;;;;;4943696;28;20505;-83
2024/03/12 12:58:28;;;;;;;6.73;2.70;;;13.20;89.70;;;;;;4936025;28;20429;-82
2024/03/12 13:01:06;;;;;;;3.13;2.93;;;13.20;90.10;;;;;;4937535;29;20499;-82
2024/03/12 13:03:37;;;;;;;1.77;1.40;;;13.00;89.60;;;;;;4930347;29;20426;-82
2024/03/12 13:06:20;;;;;;;1.83;1.73;;;13.10;90.20;;;;;;4937823;28;20497;-82
2024/03/12 13:08:51;;;;;;;2.50;1.30;;;13.10;90.80;;;;;;4949543;28;20506;-83
2024/03/12 13:11:18;;;;;;;1.93;1.73;;;13.00;90.80;;;;;;4938001;28;20530;-82
2024/03/12 13:13:45;;;;;;;3.27;2.97;;;12.90;91.60;;;;;;4937212;29;20549;-82
2024/03/12 13:16:15;;;;;;;4.57;1.80;;;13.00;91.70;;;;;;4937403;28;20427;-82
2024/03/12 13:18:45;;;;;;;3.93;2.53;;;12.90;91.50;;;;;;4937505;29;20925;-83
2024/03/12 13:21:12;;;;;;;1.77;1.67;;;12.80;91.30;;;;;;4954581;28;20435;-82
2024/03/12 13:23:37;;;;;;;4.67;2.40;;;13.00;92.00;;;;;;4937118;29;20429;-83
2024/03/12 13:26:03;;;;;;;3.90;2.13;;;13.00;91.20;;;;;;4937569;28;20510;-82
2024/03/12 13:28:29;;;;;;;2.47;2.00;;;13.10;90.60;;;;;;4937865;28;20617;-82
2024/03/12 13:30:56;;;;;;;5.93;3.10;;;13.30;90.70;;;;;;4937436;29;20205;-83
2024/03/12 13:33:22;;;;;;;3.97;2.93;;;13.20;91.30;;;;;;4937714;28;20705;-82
2024/03/12 13:35:47;;;;;;;2.87;2.30;;;13.30;91.40;;;;;;4936880;29;20419;-82
2024/03/12 13:38:14;;;;;;;2.30;1.90;;;13.30;91.00;;;;;;4936492;28;20189;-83
2024/03/12 13:40:40;;;;;;;2.30;2.10;;;13.30;90.80;;;;;;4937657;29;20443;-82
2024/03/12 13:43:05;;;;;;;2.50;2.00;;;13.20;90.50;;;;;;4938176;28;20459;-82
2024/03/12 13:45:31;;;;;;;3.87;2.20;;;13.20;90.10;;;;;;4954451;28;20439;-82
2024/03/12 13:47:57;;;;;;;6.27;2.90;;;13.20;90.70;;;;;;4946311;28;20190;-83
2024/03/12 13:50:23;;;;;;;4.70;4.40;;;13.10;91.30;;;;;;4954480;28;20259;-84
2024/03/12 13:52:51;;;;;;;3.90;2.93;;;13.10;91.90;;;;;;4936499;29;20512;-82
2024/03/12 13:55:18;;;;;;;3.17;3.00;;;13.10;91.70;;;;;;4937038;28;20864;-82
2024/03/12 13:57:45;;;;;;;4.80;3.70;;;13.10;91.80;;;;;;4933139;29;20435;-82
2024/03/12 14:00:12;;;;;;;3.70;3.20;;;13.00;91.20;;;;;;4943761;28;21028;-83
2024/03/12 14:02:39;;;;;;;2.83;2.63;;;12.90;91.30;;;;;;4943100;29;20988;-84
2024/03/12 14:05:04;;;;;;;4.40;1.77;;;12.90;91.70;;;;;;4933986;28;20493;-83
2024/03/12 14:07:30;;;;;;;3.40;1.83;;;13.10;91.00;;;;;;4937059;28;20474;-83
2024/03/12 14:09:56;;;;;;;4.47;2.60;;;13.00;90.40;;;;;;4955374;28;20203;-83
2024/03/12 14:12:22;;;;;;;2.33;2.23;;;13.00;90.00;;;;;;4940413;28;20581;-81
2024/03/12 14:14:48;;;;;;;3.90;1.50;;;12.90;90.40;;;;;;4960618;28;20423;-82
2024/03/12 14:17:13;;;;;;;2.53;2.33;;;12.70;90.70;;;;;;4938682;28;20700;-82
2024/03/12 14:19:41;;;;;;;2.53;2.33;;;12.70;91.10;;;;;;4955433;28;20179;-82
2024/03/12 14:22:08;;;;;;;2.77;1.57;;;12.60;91.50;;;;;;4954006;28;20199;-84
2024/03/12 14:24:34;;;;;;;3.50;1.97;;;12.60;91.10;;;;;;4936893;29;20422;-82
2024/03/12 14:27:00;;;;;;;5.70;2.73;;;12.50;91.40;;;;;;4937416;29;20473;-82
2024/03/12 14:29:26;;;;;;;4.33;3.30;;;12.50;92.10;;;;;;4938034;28;20445;-83
2024/03/12 14:31:52;;;;;;;32.17;3.27;;;12.60;92.20;;;;;;4936857;29;20207;-82
2024/03/12 14:34:18;;;;;;;3.53;3.43;;;12.50;92.30;;;;;;4937971;28;20477;-82
2024/03/12 14:36:43;;;;;;;1.60;1.50;;;12.50;93.40;;;;;;4950835;28;20348;-84
2024/03/12 14:39:12;;;;;;;6.57;2.80;;;12.40;94.10;;;;;;4956212;28;20505;-83
2024/03/12 14:41:39;;;;;;;2.60;2.23;;;12.30;94.60;;;;;;4936362;29;20290;-82
2024/03/12 14:44:04;;;;;;;3.67;2.07;;;12.30;94.70;;;;;;4936414;28;20481;-85
2024/03/12 14:46:30;;;;;;;3.73;3.17;;;12.30;94.00;;;;;;4937044;28;20419;-83
2024/03/12 14:48:56;;;;;;;2.17;2.00;;;12.20;93.90;;;;;;4936508;29;20189;-83
2024/03/12 14:51:22;;;;;;;4.83;4.33;;;12.20;93.90;;;;;;4937026;28;20277;-82
2024/03/12 14:53:48;;;;;;;5.03;1.67;;;12.20;94.10;;;;;;4942690;29;20557;-83
2024/03/12 14:56:13;;;;;;;3.17;2.70;;;12.20;94.10;;;;;;4937471;28;20187;-82
2024/03/12 14:58:39;;;;;;;2.80;1.83;;;12.10;94.50;;;;;;4938804;29;20179;-82
2024/03/12 15:01:09;;;;;;;3.83;2.40;;;12.10;95.20;;;;;;4936777;28;20222;-83
2024/03/12 15:03:36;;;;;;;2.80;2.00;;;12.10;95.60;;;;;;4946183;28;20434;-82
2024/03/12 15:06:03;;;;;;;2.60;2.07;;;12.10;95.30;;;;;;4937618;29;20444;-82
2024/03/12 15:08:28;;;;;;;6.47;2.40;;;12.20;95.60;;;;;;4935280;28;20427;-82
2024/03/12 15:10:54;;;;;;;2.77;2.63;;;12.20;95.60;;;;;;4935773;28;20449;-82
2024/03/12 15:13:20;;;;;;;5.80;3.10;;;12.20;95.60;;;;;;4940688;28;20258;-82
2024/03/12 15:15:46;;;;;;;3.43;2.50;;;12.10;95.80;;;;;;4937777;29;20651;-83
2024/03/12 15:18:12;;;;;;;2.47;2.27;;;12.10;96.00;;;;;;4940880;28;20227;-83
2024/03/12 15:20:38;;;;;;;3.43;3.00;;;12.00;96.00;;;;;;4940285;29;20199;-82
2024/03/12 15:23:05;;;;;;;2.40;2.27;;;11.90;96.30;;;;;;4939227;29;20818;-82
2024/03/12 15:25:31;;;;;;;1.97;1.90;;;11.80;96.60;;;;;;4947267;28;20514;-82
2024/03/12 15:27:57;;;;;;;5.90;3.40;;;11.70;96.90;;;;;;4956505;28;20530;-82
2024/03/12 15:30:23;;;;;;;2.90;2.60;;;11.60;97.10;;;;;;4939073;28;20214;-82
2024/03/12 15:32:48;;;;;;;4.20;3.07;;;11.60;97.30;;;;;;4939010;29;20214;-83
2024/03/12 15:35:14;;;;;;;4.23;3.17;;;11.50;97.30;;;;;;4942635;28;20254;-83
2024/03/12 15:37:40;;;;;;;4.40;3.60;;;11.50;97.30;;;;;;4940429;28;20490;-82
2024/03/12 15:40:08;;;;;;;3.57;2.47;;;11.40;97.30;;;;;;4945680;28;20209;-82
2024/03/12 15:42:34;;;;;;;5.00;3.30;;;11.40;97.30;;;;;;4945731;28;20577;-82
2024/03/12 15:45:02;;;;;;;3.50;3.10;;;11.40;97.30;;;;;;4956857;28;20434;-82
2024/03/12 15:47:38;;;;;;;6.53;3.43;;;11.40;97.30;;;;;;4937060;28;20190;-83
2024/03/12 15:50:07;;;;;;;2.47;1.93;;;11.40;97.30;;;;;;4944695;28;20559;-82
2024/03/12 15:52:34;;;;;;;10.67;4.50;;;11.40;97.30;;;;;;4957605;28;20502;-83
2024/03/12 15:54:59;;;;;;;3.33;3.23;;;11.30;97.30;;;;;;4939475;29;20418;-82
2024/03/12 15:57:25;;;;;;;5.83;3.40;;;11.20;97.30;;;;;;4940264;28;20419;-82
2024/03/12 15:59:51;;;;;;;4.07;3.43;;;11.20;97.30;;;;;;4939253;28;20437;-82
2024/03/12 16:02:17;;;;;;;6.03;2.57;;;11.20;97.30;;;;;;4940574;28;20661;-82
2024/03/12 16:04:43;;;;;;;4.70;3.50;;;11.20;97.30;;;;;;4950391;28;20175;-82
2024/03/12 16:07:09;;;;;;;7.50;3.77;;;11.10;97.30;;;;;;4938991;28;20443;-82
2024/03/12 16:09:34;;;;;;;13.73;7.77;;;11.10;97.30;;;;;;4940876;28;20800;-82
2024/03/12 16:12:00;;;;;;;13.57;8.40;;;11.10;97.30;;;;;;4938944;29;20239;-82
2024/03/12 16:14:25;;;;;;;10.60;6.77;;;11.10;97.30;;;;;;4940924;28;20273;-82
2024/03/12 16:16:52;;;;;;;12.73;4.63;;;11.10;97.30;;;;;;4938587;29;20191;-82
2024/03/12 16:19:19;;;;;;;15.93;8.90;;;11.10;97.30;;;;;;4942987;28;21045;-84
2024/03/12 16:21:47;;;;;;;18.73;5.60;;;11.00;97.30;;;;;;4940724;29;20537;-82
2024/03/12 16:24:13;;;;;;;23.57;3.80;;;11.00;97.30;;;;;;4937641;28;20812;-82
2024/03/12 16:26:39;;;;;;;5.37;4.53;;;11.00;97.30;;;;;;4938037;28;20517;-82
2024/03/12 16:29:04;;;;;;;5.57;2.50;;;11.00;97.30;;;;;;4958243;28;20509;-81
2024/03/12 16:31:30;;;;;;;4.83;3.53;;;11.00;97.30;;;;;;4955643;28;20258;-82
2024/03/12 16:33:56;;;;;;;5.10;3.93;;;11.00;97.30;;;;;;4938212;29;20203;-82
2024/03/12 16:36:21;;;;;;;5.00;2.50;;;11.00;97.30;;;;;;4940207;28;20665;-83
2024/03/12 16:38:47;;;;;;;2.30;2.03;;;11.00;97.30;;;;;;4941721;28;20198;-82
2024/03/12 16:41:16;;;;;;;2.50;1.63;;;11.00;97.30;;;;;;4939912;28;20199;-82
2024/03/12 16:43:42;;;;;;;3.90;3.67;;;10.90;97.30;;;;;;4957770;28;20578;-83
2024/03/12 16:46:09;;;;;;;2.30;2.10;;;10.90;97.30;;;;;;4937703;28;20423;-84
2024/03/12 16:48:35;;;;;;;7.13;3.37;;;10.90;97.30;;;;;;4937810;29;20638;-82
2024/03/12 16:51:02;;;;;;;5.33;3.27;;;10.90;97.30;;;;;;4937891;29;20557;-82
2024/03/12 16:53:30;;;;;;;2.67;2.10;;;10.90;97.30;;;;;;4935737;28;20475;-82
2024/03/12 16:55:56;;;;;;;9.30;3.63;;;10.90;97.30;;;;;;4937089;29;20435;-82
2024/03/12 16:58:22;;;;;;;3.40;1.87;;;10.80;97.30;;;;;;4953464;28;20921;-82
2024/03/12 17:00:48;;;;;;;4.03;3.57;;;10.80;97.30;;;;;;4936859;29;20443;-82
2024/03/12 17:03:16;;;;;;;2.87;2.67;;;10.80;97.30;;;;;;4940123;28;20201;-82
2024/03/12 17:05:42;;;;;;;4.03;2.93;;;10.80;97.30;;;;;;4937378;28;20187;-82
2024/03/12 17:08:08;;;;;;;2.03;1.80;;;10.80;97.30;;;;;;4955427;28;20423;-82
2024/03/12 17:10:35;;;;;;;4.60;2.97;;;10.80;97.30;;;;;;4944459;28;20207;-82
2024/03/12 17:13:02;;;;;;;4.00;2.20;;;10.70;97.30;;;;;;4939658;29;20463;-82
2024/03/12 17:15:28;;;;;;;6.83;4.43;;;10.70;97.30;;;;;;4952031;28;20510;-82
2024/03/12 17:17:54;;;;;;;5.37;3.10;;;10.70;97.30;;;;;;4942437;29;20976;-84
2024/03/12 17:20:20;;;;;;;2.77;2.03;;;10.70;97.30;;;;;;4944837;28;20222;-82
2024/03/12 17:22:46;;;;;;;7.93;3.90;;;10.70;97.30;;;;;;4957266;28;20808;-82
2024/03/12 17:25:12;;;;;;;3.90;3.53;;;10.60;97.30;;;;;;4954529;28;20191;-82
2024/03/12 17:27:41;;;;;;;4.80;2.87;;;10.60;97.30;;;;;;4937299;28;20848;-82
2024/03/12 17:30:09;;;;;;;6.17;4.47;;;10.60;97.30;;;;;;4937267;28;20993;-82
2024/03/12 17:32:39;;;;;;;3.00;2.80;;;10.60;97.30;;;;;;4959326;28;20538;-82
2024/03/12 17:35:13;;;;;;;4.13;3.10;;;10.60;97.30;;;;;;4937065;29;20470;-82
2024/03/12 17:37:41;;;;;;;4.00;3.23;;;10.60;97.30;;;;;;4935441;28;20427;-82
2024/03/12 17:40:15;;;;;;;9.87;2.90;;;10.60;97.30;;;;;;4936453;28;20530;-82
2024/03/12 17:42:42;;;;;;;2.80;2.60;;;10.60;97.30;;;;;;4957020;28;20940;-83
2024/03/12 17:45:12;;;;;;;6.93;4.40;;;10.60;97.30;;;;;;4954528;28;20423;-82
2024/03/12 17:47:42;;;;;;;2.53;2.33;;;10.60;97.30;;;;;;4953731;28;20842;-82
2024/03/12 17:50:10;;;;;;;5.17;3.13;;;10.50;97.30;;;;;;4944563;28;20450;-82
2024/03/12 17:52:35;;;;;;;2.23;2.03;;;10.50;97.30;;;;;;4936478;28;21076;-82
2024/03/12 17:57:44;;;;;;;6.53;3.93;;;10.50;97.30;;;;;;4968421;28;20241;-65
2024/03/12 18:00:10;;;;;;;7.57;3.33;;;10.50;97.30;;;;;;4952681;28;20508;-65